createdAt,value
2022-11-22T00:00:38.391Z,-1.21
2022-11-22T00:01:38.427Z,-1.21
2022-11-22T00:02:38.373Z,-1.10
2022-11-22T00:03:38.364Z,-1.00
2022-11-22T00:04:38.356Z,-1.06
2022-11-22T00:05:38.347Z,-1.10
2022-11-22T00:06:38.354Z,-1.09
2022-11-22T00:07:38.440Z,-1.02
2022-11-22T00:08:38.315Z,-1.07
2022-11-22T00:09:38.300Z,-1.10
2022-11-22T00:10:38.287Z,-0.97
2022-11-22T00:11:38.295Z,-1.07
2022-11-22T00:12:38.268Z,-1.02
2022-11-22T00:13:38.258Z,-1.06
2022-11-22T00:14:38.250Z,-1.06
2022-11-22T00:15:38.238Z,-1.05
2022-11-22T00:16:38.236Z,-1.06
2022-11-22T00:17:45.942Z,-1.03
2022-11-22T00:18:38.206Z,-0.99
2022-11-22T00:19:38.198Z,-1.06
2022-11-22T00:20:38.184Z,-0.97
2022-11-22T00:21:38.191Z,-0.95
2022-11-22T00:22:44.006Z,-0.97
2022-11-22T00:23:39.169Z,-1.00
2022-11-22T00:24:38.169Z,-0.99
2022-11-22T00:25:38.135Z,-1.06
2022-11-22T00:26:38.138Z,-1.09
2022-11-22T00:27:38.111Z,-1.10
2022-11-22T00:28:38.099Z,-1.10
2022-11-22T00:29:38.094Z,-1.09
2022-11-22T00:30:38.080Z,-1.13
2022-11-22T00:31:38.086Z,-1.13
2022-11-22T00:32:38.064Z,-1.05
2022-11-22T00:33:38.050Z,-1.07
2022-11-22T00:34:38.037Z,-1.09
2022-11-22T00:35:38.031Z,-1.03
2022-11-22T00:36:38.029Z,-1.05
2022-11-22T00:37:38.008Z,-1.10
2022-11-22T00:38:37.997Z,-1.10
2022-11-22T00:39:38.002Z,-1.05
2022-11-22T00:40:37.972Z,-1.07
2022-11-22T00:41:37.980Z,-1.06
2022-11-22T00:42:37.954Z,-1.06
2022-11-22T00:43:37.945Z,-1.07
2022-11-22T00:44:37.934Z,-1.03
2022-11-22T00:45:37.931Z,-1.10
2022-11-22T00:46:37.922Z,-1.13
2022-11-22T00:47:37.902Z,-1.06
2022-11-22T00:48:37.891Z,-1.10
2022-11-22T00:49:37.881Z,-1.09
2022-11-22T00:50:37.870Z,-1.12
2022-11-22T00:51:37.872Z,-1.15
2022-11-22T00:52:37.847Z,-1.12
2022-11-22T00:53:37.840Z,-1.10
2022-11-22T00:54:37.827Z,-1.13
2022-11-22T00:55:37.836Z,-1.17
2022-11-22T00:56:37.851Z,-1.06
2022-11-22T00:57:37.797Z,-1.24
2022-11-22T00:58:37.786Z,-1.18
2022-11-22T00:59:37.776Z,-1.23
2022-11-22T01:00:37.828Z,-1.27
2022-11-22T01:01:37.874Z,-1.27
2022-11-22T01:02:37.742Z,-1.27
2022-11-22T01:03:37.735Z,-1.28
2022-11-22T01:04:37.725Z,-1.31
2022-11-22T01:05:37.714Z,-1.30
2022-11-22T01:06:37.711Z,-1.28
2022-11-22T01:07:37.762Z,-1.25
2022-11-22T01:08:37.680Z,-1.33
2022-11-22T01:09:37.672Z,-1.27
2022-11-22T01:10:37.659Z,-1.28
2022-11-22T01:11:37.679Z,-1.27
2022-11-22T01:12:37.641Z,-1.36
2022-11-22T01:13:37.632Z,-1.25
2022-11-22T01:14:37.615Z,-1.33
2022-11-22T01:15:37.609Z,-1.28
2022-11-22T01:16:37.637Z,-1.24
2022-11-22T01:17:37.585Z,-1.28
2022-11-22T01:18:37.574Z,-1.31
2022-11-22T01:19:37.565Z,-1.35
2022-11-22T01:20:37.553Z,-1.27
2022-11-22T01:21:37.559Z,-1.30
2022-11-22T01:22:37.574Z,-1.35
2022-11-22T01:23:37.525Z,-1.38
2022-11-22T01:24:37.513Z,-1.38
2022-11-22T01:25:37.501Z,-1.33
2022-11-22T01:26:37.503Z,-1.30
2022-11-22T01:27:37.503Z,-1.21
2022-11-22T01:28:37.477Z,-1.25
2022-11-22T01:29:37.459Z,-1.31
2022-11-22T01:30:37.450Z,-1.31
2022-11-22T01:31:37.449Z,-1.33
2022-11-22T01:32:37.461Z,-1.35
2022-11-22T01:33:37.422Z,-1.43
2022-11-22T01:34:37.407Z,-1.35
2022-11-22T01:35:37.399Z,-1.42
2022-11-22T01:36:37.405Z,-1.41
2022-11-22T01:37:37.376Z,-1.31
2022-11-22T01:38:37.367Z,-1.46
2022-11-22T01:39:37.354Z,-1.43
2022-11-22T01:40:37.342Z,-1.39
2022-11-22T01:41:37.344Z,-1.36
2022-11-22T01:42:37.321Z,-1.35
2022-11-22T01:43:37.336Z,-1.45
2022-11-22T01:44:37.300Z,-1.36
2022-11-22T01:45:37.288Z,-1.39
2022-11-22T01:46:37.292Z,-1.43
2022-11-22T01:47:37.267Z,-1.45
2022-11-22T01:48:37.269Z,-1.38
2022-11-22T01:49:37.246Z,-1.39
2022-11-22T01:50:37.237Z,-1.42
2022-11-22T01:51:37.237Z,-1.56
2022-11-22T01:52:37.214Z,-1.45
2022-11-22T01:53:37.205Z,-1.42
2022-11-22T01:54:37.193Z,-1.43
2022-11-22T01:55:37.183Z,-1.43
2022-11-22T01:56:37.184Z,-1.46
2022-11-22T01:57:37.164Z,-1.54
2022-11-22T01:58:37.151Z,-1.46
2022-11-22T01:59:37.161Z,-1.49
2022-11-22T02:00:37.156Z,-1.46
2022-11-22T02:01:37.255Z,-1.48
2022-11-22T02:02:37.109Z,-1.51
2022-11-22T02:03:37.099Z,-1.56
2022-11-22T02:04:37.092Z,-1.49
2022-11-22T02:05:37.076Z,-1.48
2022-11-22T02:06:37.096Z,-1.53
2022-11-22T02:07:37.186Z,-1.59
2022-11-22T02:08:37.046Z,-1.51
2022-11-22T02:09:37.037Z,-1.59
2022-11-22T02:10:37.023Z,-1.60
2022-11-22T02:11:37.015Z,-1.51
2022-11-22T02:12:37.014Z,-1.59
2022-11-22T02:13:36.996Z,-1.43
2022-11-22T02:14:36.982Z,-1.39
2022-11-22T02:15:36.997Z,-1.42
2022-11-22T02:16:36.961Z,-1.36
2022-11-22T02:17:36.963Z,-1.43
2022-11-22T02:18:36.942Z,-1.41
2022-11-22T02:19:36.929Z,-1.43
2022-11-22T02:20:36.916Z,-1.51
2022-11-22T02:21:36.950Z,-1.48
2022-11-22T02:22:36.916Z,-1.42
2022-11-22T02:23:36.891Z,-1.48
2022-11-22T02:24:36.874Z,-1.43
2022-11-22T02:25:36.871Z,-1.36
2022-11-22T02:26:36.856Z,-1.53
2022-11-22T02:27:36.859Z,-1.43
2022-11-22T02:28:36.833Z,-1.35
2022-11-22T02:29:36.825Z,-1.31
2022-11-22T02:30:36.821Z,-1.30
2022-11-22T02:31:36.820Z,-1.27
2022-11-22T02:32:36.801Z,-1.28
2022-11-22T02:33:36.782Z,-1.23
2022-11-22T02:34:36.777Z,-1.31
2022-11-22T02:35:36.759Z,-1.28
2022-11-22T02:36:36.751Z,-1.33
2022-11-22T02:37:36.763Z,-1.30
2022-11-22T02:38:36.727Z,-1.33
2022-11-22T02:39:36.718Z,-1.28
2022-11-22T02:40:36.703Z,-1.33
2022-11-22T02:41:36.697Z,-1.31
2022-11-22T02:42:36.691Z,-1.25
2022-11-22T02:43:36.675Z,-1.31
2022-11-22T02:44:36.661Z,-1.30
2022-11-22T02:45:36.654Z,-1.33
2022-11-22T02:46:36.679Z,-1.33
2022-11-22T02:47:36.662Z,-1.30
2022-11-22T02:48:36.641Z,-1.31
2022-11-22T02:49:36.674Z,-1.31
2022-11-22T02:50:36.606Z,-1.30
2022-11-22T02:51:36.590Z,-1.23
2022-11-22T02:52:36.588Z,-1.21
2022-11-22T02:53:36.569Z,-1.23
2022-11-22T02:54:36.558Z,-1.20
2022-11-22T02:55:36.548Z,-1.25
2022-11-22T02:56:36.535Z,-1.09
2022-11-22T02:57:36.537Z,-1.20
2022-11-22T02:58:36.514Z,-1.23
2022-11-22T02:59:36.504Z,-1.25
2022-11-22T03:00:36.602Z,-1.23
2022-11-22T03:01:36.541Z,-1.18
2022-11-22T03:02:36.483Z,-1.20
2022-11-22T03:03:36.484Z,-1.23
2022-11-22T03:04:36.451Z,-1.20
2022-11-22T03:05:36.444Z,-1.09
2022-11-22T03:06:36.431Z,-1.10
2022-11-22T03:07:36.571Z,-1.21
2022-11-22T03:08:36.411Z,-1.17
2022-11-22T03:09:36.404Z,-1.07
2022-11-22T03:10:36.388Z,-1.17
2022-11-22T03:11:36.378Z,-1.12
2022-11-22T03:12:36.377Z,-1.09
2022-11-22T03:13:36.358Z,-1.20
2022-11-22T03:14:36.347Z,-1.23
2022-11-22T03:15:36.336Z,-1.10
2022-11-22T03:16:36.324Z,-1.10
2022-11-22T03:17:36.331Z,-1.18
2022-11-22T03:18:36.304Z,-1.18
2022-11-22T03:19:36.316Z,-1.20
2022-11-22T03:20:36.299Z,-1.10
2022-11-22T03:21:36.278Z,-1.09
2022-11-22T03:22:36.269Z,-1.13
2022-11-22T03:23:36.251Z,-1.20
2022-11-22T03:24:36.242Z,-1.23
2022-11-22T03:25:36.245Z,-1.20
2022-11-22T03:26:36.222Z,-1.21
2022-11-22T03:27:36.220Z,-1.31
2022-11-22T03:28:36.198Z,-1.24
2022-11-22T03:29:36.188Z,-1.28
2022-11-22T03:30:36.180Z,-1.27
2022-11-22T03:31:36.181Z,-1.30
2022-11-22T03:32:36.173Z,-1.30
2022-11-22T03:33:36.174Z,-1.28
2022-11-22T03:34:36.135Z,-1.21
2022-11-22T03:35:36.145Z,-1.23
2022-11-22T03:36:36.113Z,-1.24
2022-11-22T03:37:36.116Z,-1.27
2022-11-22T03:38:36.095Z,-1.21
2022-11-22T03:39:36.079Z,-1.31
2022-11-22T03:40:36.084Z,-1.30
2022-11-22T03:41:36.058Z,-1.23
2022-11-22T03:42:36.062Z,-1.23
2022-11-22T03:43:36.039Z,-1.24
2022-11-22T03:44:36.029Z,-1.30
2022-11-22T03:45:36.019Z,-1.25
2022-11-22T03:46:36.006Z,-1.30
2022-11-22T03:47:36.009Z,-1.33
2022-11-22T03:48:35.987Z,-1.25
2022-11-22T03:49:35.986Z,-1.27
2022-11-22T03:50:35.987Z,-1.30
2022-11-22T03:51:35.974Z,-1.21
2022-11-22T03:52:35.956Z,-1.31
2022-11-22T03:53:35.951Z,-1.25
2022-11-22T03:54:35.936Z,-1.24
2022-11-22T03:55:35.915Z,-1.31
2022-11-22T03:56:35.905Z,-1.28
2022-11-22T03:57:35.906Z,-1.31
2022-11-22T03:58:35.882Z,-1.30
2022-11-22T03:59:35.873Z,-1.30
2022-11-22T04:00:35.870Z,-1.25
2022-11-22T04:01:35.882Z,-1.25
2022-11-22T04:02:35.848Z,-1.27
2022-11-22T04:03:35.829Z,-1.25
2022-11-22T04:04:35.821Z,-1.39
2022-11-22T04:05:35.804Z,-1.42
2022-11-22T04:06:35.797Z,-1.33
2022-11-22T04:07:35.901Z,-1.30
2022-11-22T04:08:35.790Z,-1.33
2022-11-22T04:09:35.815Z,-1.27
2022-11-22T04:10:35.756Z,-1.31
2022-11-22T04:11:35.741Z,-1.31
2022-11-22T04:12:35.745Z,-1.38
2022-11-22T04:13:35.721Z,-1.31
2022-11-22T04:14:35.712Z,-1.23
2022-11-22T04:15:35.699Z,-1.20
2022-11-22T04:16:35.694Z,-1.24
2022-11-22T04:17:35.688Z,-1.23
2022-11-22T04:18:35.669Z,-1.23
2022-11-22T04:19:35.656Z,-1.21
2022-11-22T04:20:35.646Z,-1.23
2022-11-22T04:21:35.636Z,-1.33
2022-11-22T04:22:35.638Z,-1.21
2022-11-22T04:23:35.632Z,-1.23
2022-11-22T04:24:35.604Z,-1.27
2022-11-22T04:25:35.599Z,-1.24
2022-11-22T04:26:35.589Z,-1.18
2022-11-22T04:27:35.579Z,-1.21
2022-11-22T04:29:02.044Z,-1.24
2022-11-22T04:29:36.550Z,-1.21
2022-11-22T04:30:35.539Z,-1.05
2022-11-22T04:31:35.528Z,-1.12
2022-11-22T04:32:35.529Z,-1.05
2022-11-22T04:33:35.506Z,-1.09
2022-11-22T04:34:35.500Z,-1.05
2022-11-22T04:35:35.484Z,-1.10
2022-11-22T04:36:35.476Z,-1.10
2022-11-22T04:37:35.477Z,-1.03
2022-11-22T04:38:35.467Z,-1.06
2022-11-22T04:39:35.469Z,-1.07
2022-11-22T04:40:35.435Z,-1.03
2022-11-22T04:41:35.425Z,-1.07
2022-11-22T04:42:35.440Z,-1.06
2022-11-22T04:43:35.404Z,-1.07
2022-11-22T04:44:35.393Z,-1.06
2022-11-22T04:45:35.379Z,-1.10
2022-11-22T04:46:35.371Z,-1.03
2022-11-22T04:47:35.372Z,-0.97
2022-11-22T04:48:35.351Z,-0.86
2022-11-22T04:49:35.338Z,-0.92
2022-11-22T04:50:35.331Z,-0.89
2022-11-22T04:51:35.319Z,-0.95
2022-11-22T04:52:35.316Z,-0.87
2022-11-22T04:53:35.295Z,-0.92
2022-11-22T04:54:35.287Z,-0.83
2022-11-22T04:55:35.296Z,-0.91
2022-11-22T04:56:35.269Z,-0.92
2022-11-22T04:57:35.266Z,-0.80
2022-11-22T04:58:35.245Z,-0.80
2022-11-22T04:59:35.235Z,-0.81
2022-11-22T05:00:35.299Z,-0.80
2022-11-22T05:01:35.276Z,-0.75
2022-11-22T05:02:35.212Z,-0.77
2022-11-22T05:03:35.194Z,-0.83
2022-11-22T05:04:35.183Z,-0.81
2022-11-22T05:05:35.170Z,-0.75
2022-11-22T05:06:35.160Z,-0.75
2022-11-22T05:07:35.236Z,-0.78
2022-11-22T05:08:35.140Z,-0.75
2022-11-22T05:09:35.127Z,-0.75
2022-11-22T05:10:35.121Z,-0.77
2022-11-22T05:11:35.153Z,-0.77
2022-11-22T05:12:35.106Z,-0.81
2022-11-22T05:13:35.103Z,-0.77
2022-11-22T05:14:35.074Z,-0.78
2022-11-22T05:15:35.066Z,-0.81
2022-11-22T05:16:35.053Z,-0.78
2022-11-22T05:17:35.056Z,-0.69
2022-11-22T05:18:35.035Z,-0.68
2022-11-22T05:19:35.021Z,-0.63
2022-11-22T05:20:35.016Z,-0.73
2022-11-22T05:21:35.000Z,-0.60
2022-11-22T05:22:35.005Z,-0.68
2022-11-22T05:23:35.002Z,-0.66
2022-11-22T05:24:34.996Z,-0.69
2022-11-22T05:25:34.960Z,-0.66
2022-11-22T05:26:34.952Z,-0.80
2022-11-22T05:27:34.974Z,-0.77
2022-11-22T05:28:34.928Z,-0.81
2022-11-22T05:29:34.918Z,-0.75
2022-11-22T05:30:34.911Z,-0.73
2022-11-22T05:31:34.915Z,-0.80
2022-11-22T05:32:34.897Z,-0.70
2022-11-22T05:33:34.877Z,-0.63
2022-11-22T05:34:34.863Z,-0.70
2022-11-22T05:35:34.878Z,-0.75
2022-11-22T05:36:34.850Z,-0.81
2022-11-22T05:37:34.845Z,-0.78
2022-11-22T05:38:34.824Z,-0.69
2022-11-22T05:39:34.815Z,-0.78
2022-11-22T05:40:34.804Z,-0.73
2022-11-22T05:41:34.802Z,-0.77
2022-11-22T05:42:34.795Z,-0.80
2022-11-22T05:43:34.823Z,-0.73
2022-11-22T05:44:34.763Z,-0.77
2022-11-22T05:45:34.751Z,-0.73
2022-11-22T05:46:34.888Z,-0.80
2022-11-22T05:47:34.747Z,-0.80
2022-11-22T05:48:34.722Z,-0.80
2022-11-22T05:49:34.707Z,-0.75
2022-11-22T05:50:34.698Z,-0.80
2022-11-22T05:51:35.321Z,-0.69
2022-11-22T05:52:34.687Z,-0.63
2022-11-22T05:53:34.664Z,-0.66
2022-11-22T05:54:34.655Z,-0.66
2022-11-22T05:55:34.645Z,-0.78
2022-11-22T05:56:34.635Z,-0.66
2022-11-22T05:57:34.639Z,-0.73
2022-11-22T05:58:34.614Z,-0.69
2022-11-22T05:59:36.075Z,-0.73
2022-11-22T06:00:34.598Z,-0.66
2022-11-22T06:01:34.585Z,-0.77
2022-11-22T06:02:34.648Z,-0.66
2022-11-22T06:03:34.567Z,-0.70
2022-11-22T06:04:34.551Z,-0.69
2022-11-22T06:05:34.543Z,-0.73
2022-11-22T06:06:34.536Z,-0.65
2022-11-22T06:07:34.640Z,-0.65
2022-11-22T06:08:34.536Z,-0.69
2022-11-22T06:09:34.500Z,-0.72
2022-11-22T06:10:34.488Z,-0.70
2022-11-22T06:11:34.478Z,-0.68
2022-11-22T06:12:34.480Z,-0.66
2022-11-22T06:13:34.457Z,-0.73
2022-11-22T06:14:38.471Z,-0.62
2022-11-22T06:15:35.450Z,-0.72
2022-11-22T06:16:34.433Z,-0.77
2022-11-22T06:17:34.426Z,-0.73
2022-11-22T06:18:34.405Z,-0.65
2022-11-22T06:19:34.400Z,-0.63
2022-11-22T06:20:34.391Z,-0.65
2022-11-22T06:21:34.373Z,-0.65
2022-11-22T06:22:34.377Z,-0.70
2022-11-22T06:23:34.352Z,-0.60
2022-11-22T06:24:34.345Z,-0.68
2022-11-22T06:25:35.936Z,-0.62
2022-11-22T06:26:39.116Z,-0.59
2022-11-22T06:27:35.319Z,-0.60
2022-11-22T06:28:42.000Z,-0.59
2022-11-22T06:29:34.285Z,-0.60
2022-11-22T06:30:34.280Z,-0.57
2022-11-22T06:31:34.296Z,-0.54
2022-11-22T06:32:34.327Z,-0.55
2022-11-22T06:33:34.245Z,-0.57
2022-11-22T06:34:34.237Z,-0.59
2022-11-22T06:35:34.224Z,-0.54
2022-11-22T06:36:34.212Z,-0.57
2022-11-22T06:37:34.211Z,-0.60
2022-11-22T06:38:34.194Z,-0.54
2022-11-22T06:39:34.180Z,-0.63
2022-11-22T06:40:34.172Z,-0.54
2022-11-22T06:41:34.160Z,-0.57
2022-11-22T06:42:34.162Z,-0.60
2022-11-22T06:43:34.137Z,-0.57
2022-11-22T06:44:34.134Z,-0.54
2022-11-22T06:45:34.162Z,-0.57
2022-11-22T06:46:34.118Z,-0.59
2022-11-22T06:47:34.164Z,-0.62
2022-11-22T06:48:34.089Z,-0.50
2022-11-22T06:49:34.075Z,-0.54
2022-11-22T06:50:34.068Z,-0.45
2022-11-22T06:51:34.056Z,-0.47
2022-11-22T06:52:34.061Z,-0.47
2022-11-22T06:53:46.697Z,-0.48
2022-11-22T06:54:35.036Z,-0.52
2022-11-22T06:55:50.262Z,-0.47
2022-11-22T06:56:35.008Z,-0.51
2022-11-22T06:57:34.010Z,-0.50
2022-11-22T06:58:41.518Z,-0.45
2022-11-22T06:59:33.970Z,-0.50
2022-11-22T07:00:33.964Z,-0.42
2022-11-22T07:01:34.186Z,-0.47
2022-11-22T07:02:33.960Z,-0.50
2022-11-22T07:03:33.946Z,-0.47
2022-11-22T07:04:33.921Z,-0.47
2022-11-22T07:05:33.909Z,-0.45
2022-11-22T07:06:33.938Z,-0.45
2022-11-22T07:07:33.986Z,-0.45
2022-11-22T07:08:33.883Z,-0.50
2022-11-22T07:09:33.866Z,-0.45
2022-11-22T07:10:33.873Z,-0.45
2022-11-22T07:11:41.552Z,-0.47
2022-11-22T07:12:33.869Z,-0.44
2022-11-22T07:13:33.833Z,-0.50
2022-11-22T07:14:33.839Z,-0.42
2022-11-22T07:15:33.813Z,-0.47
2022-11-22T07:16:33.800Z,-0.50
2022-11-22T07:17:33.794Z,-0.45
2022-11-22T07:18:33.776Z,-0.50
2022-11-22T07:19:33.778Z,-0.44
2022-11-22T07:20:33.760Z,-0.45
2022-11-22T07:21:33.748Z,-0.45
2022-11-22T07:22:33.742Z,-0.50
2022-11-22T07:23:33.719Z,-0.45
2022-11-22T07:24:33.815Z,-0.44
2022-11-22T07:25:33.706Z,-0.41
2022-11-22T07:26:33.706Z,-0.44
2022-11-22T07:27:33.683Z,-0.50
2022-11-22T07:28:33.717Z,-0.36
2022-11-22T07:29:33.657Z,-0.39
2022-11-22T07:30:33.654Z,-0.30
2022-11-22T07:31:33.636Z,-0.36
2022-11-22T07:32:33.634Z,-0.34
2022-11-22T07:33:33.627Z,-0.34
2022-11-22T07:34:33.604Z,-0.31
2022-11-22T07:35:33.615Z,-0.33
2022-11-22T07:36:33.646Z,-0.31
2022-11-22T07:37:33.580Z,-0.30
2022-11-22T07:38:33.588Z,-0.37
2022-11-22T07:39:33.555Z,-0.36
2022-11-22T07:40:33.544Z,-0.29
2022-11-22T07:41:33.561Z,-0.27
2022-11-22T07:42:33.546Z,-0.34
2022-11-22T07:43:33.526Z,-0.31
2022-11-22T07:44:33.541Z,-0.41
2022-11-22T07:45:33.492Z,-0.37
2022-11-22T07:46:33.518Z,-0.39
2022-11-22T07:47:33.469Z,-0.36
2022-11-22T07:48:33.482Z,-0.37
2022-11-22T07:49:33.448Z,-0.37
2022-11-22T07:50:33.439Z,-0.34
2022-11-22T07:51:33.455Z,-0.36
2022-11-22T07:52:33.420Z,-0.29
2022-11-22T07:53:33.421Z,-0.30
2022-11-22T07:54:33.435Z,-0.26
2022-11-22T07:55:33.390Z,-0.29
2022-11-22T07:56:33.380Z,-0.34
2022-11-22T07:57:33.365Z,-0.34
2022-11-22T07:58:33.370Z,-0.31
2022-11-22T07:59:33.381Z,-0.33
2022-11-22T08:00:33.338Z,-0.27
2022-11-22T08:01:33.401Z,-0.26
2022-11-22T08:02:33.315Z,-0.24
2022-11-22T08:03:33.330Z,-0.26
2022-11-22T08:04:33.297Z,-0.26
2022-11-22T08:05:33.289Z,-0.05
2022-11-22T08:06:33.270Z,-0.08
2022-11-22T08:07:33.427Z,-0.08
2022-11-22T08:08:33.359Z,-0.09
2022-11-22T08:09:33.238Z,-0.05
2022-11-22T08:10:33.226Z,-0.05
2022-11-22T08:11:33.223Z,0.05
2022-11-22T08:12:33.207Z,-0.06
2022-11-22T08:13:33.218Z,-0.11
2022-11-22T08:14:33.188Z,-0.06
2022-11-22T08:15:33.177Z,-0.13
2022-11-22T08:16:33.163Z,-0.08
2022-11-22T08:17:33.158Z,-0.15
2022-11-22T08:18:33.152Z,-0.12
2022-11-22T08:19:33.145Z,-0.11
2022-11-22T08:20:33.123Z,-0.09
2022-11-22T08:21:33.113Z,-0.18
2022-11-22T08:22:33.101Z,-0.16
2022-11-22T08:23:33.212Z,-0.06
2022-11-22T08:24:33.084Z,-0.12
2022-11-22T08:25:33.069Z,-0.16
2022-11-22T08:26:33.065Z,-0.15
2022-11-22T08:27:33.051Z,-0.12
2022-11-22T08:28:33.050Z,-0.13
2022-11-22T08:29:33.089Z,-0.12
2022-11-22T08:30:33.021Z,-0.06
2022-11-22T08:31:33.014Z,-0.05
2022-11-22T08:32:32.999Z,-0.04
2022-11-22T08:33:32.995Z,-0.01
2022-11-22T08:34:33.992Z,-0.01
2022-11-22T08:35:32.967Z,-0.04
2022-11-22T08:36:32.953Z,-0.05
2022-11-22T08:37:32.947Z,0.00
2022-11-22T08:38:32.946Z,-0.05
2022-11-22T08:39:33.039Z,0.10
2022-11-22T08:40:38.020Z,0.06
2022-11-22T08:41:33.900Z,0.03
2022-11-22T08:42:32.892Z,0.00
2022-11-22T08:43:32.895Z,0.03
2022-11-22T08:44:32.868Z,0.12
2022-11-22T08:45:32.861Z,0.05
2022-11-22T08:46:32.849Z,0.09
2022-11-22T08:47:32.841Z,0.06
2022-11-22T08:48:32.845Z,0.09
2022-11-22T08:49:33.212Z,0.06
2022-11-22T08:50:32.806Z,0.12
2022-11-22T08:51:32.811Z,0.07
2022-11-22T08:52:32.787Z,0.07
2022-11-22T08:53:32.784Z,0.06
2022-11-22T08:54:37.529Z,0.09
2022-11-22T08:55:33.868Z,0.16
2022-11-22T08:56:32.740Z,0.03
2022-11-22T08:57:32.732Z,0.06
2022-11-22T08:58:32.733Z,0.10
2022-11-22T08:59:33.343Z,0.09
2022-11-22T09:00:33.730Z,0.13
2022-11-22T09:01:32.800Z,0.10
2022-11-22T09:02:32.685Z,0.12
2022-11-22T09:03:32.681Z,0.10
2022-11-22T09:04:32.658Z,0.15
2022-11-22T09:05:32.683Z,0.07
2022-11-22T09:08:36.170Z,0.09
2022-11-22T09:09:39.741Z,0.12
2022-11-22T09:10:33.593Z,0.15
2022-11-22T09:11:32.703Z,0.23
2022-11-22T09:12:32.575Z,0.21
2022-11-22T09:13:32.571Z,0.18
2022-11-22T09:14:32.554Z,0.28
2022-11-22T09:15:32.546Z,0.18
2022-11-22T09:16:32.530Z,0.16
2022-11-22T09:17:32.519Z,0.20
2022-11-22T09:18:32.530Z,0.27
2022-11-22T09:19:32.741Z,0.33
2022-11-22T09:20:32.493Z,0.23
2022-11-22T09:21:32.481Z,0.20
2022-11-22T09:22:32.465Z,0.25
2022-11-22T09:23:32.479Z,0.30
2022-11-22T09:24:32.454Z,0.31
2022-11-22T09:25:32.435Z,0.31
2022-11-22T09:26:32.447Z,0.27
2022-11-22T09:27:32.532Z,0.43
2022-11-22T09:28:32.412Z,0.36
2022-11-22T09:29:32.750Z,0.46
2022-11-22T09:30:32.417Z,0.43
2022-11-22T09:31:32.372Z,0.39
2022-11-22T09:32:33.944Z,0.43
2022-11-22T09:33:32.357Z,0.57
2022-11-22T09:34:32.372Z,0.58
2022-11-22T09:35:32.329Z,0.46
2022-11-22T09:36:32.329Z,0.45
2022-11-22T09:37:32.313Z,0.45
2022-11-22T09:38:32.308Z,0.42
2022-11-22T09:39:32.517Z,0.39
2022-11-22T09:40:32.284Z,0.45
2022-11-22T09:41:32.262Z,0.46
2022-11-22T09:42:32.282Z,0.46
2022-11-22T09:43:32.370Z,0.43
2022-11-22T09:44:32.232Z,0.46
2022-11-22T09:45:32.220Z,0.52
2022-11-22T09:46:32.224Z,0.53
2022-11-22T09:47:32.204Z,0.61
2022-11-22T09:48:32.194Z,0.60
2022-11-22T09:49:32.694Z,0.65
2022-11-22T09:50:32.169Z,0.65
2022-11-22T09:51:32.160Z,0.70
2022-11-22T09:52:32.144Z,0.67
2022-11-22T09:53:32.159Z,0.72
2022-11-22T09:54:32.124Z,0.75
2022-11-22T09:55:32.116Z,0.76
2022-11-22T09:56:32.103Z,0.78
2022-11-22T09:57:32.093Z,0.86
2022-11-22T09:58:32.103Z,0.79
2022-11-22T09:59:32.396Z,0.85
2022-11-22T10:00:32.062Z,0.88
2022-11-22T10:01:32.142Z,0.83
2022-11-22T10:02:43.374Z,0.92
2022-11-22T10:03:33.039Z,0.85
2022-11-22T10:04:32.017Z,0.85
2022-11-22T10:05:32.009Z,0.80
2022-11-22T10:06:31.994Z,0.88
2022-11-22T10:07:32.095Z,0.86
2022-11-22T10:08:31.983Z,0.86
2022-11-22T10:09:32.393Z,0.82
2022-11-22T10:10:31.952Z,0.83
2022-11-22T10:11:36.236Z,0.96
2022-11-22T10:12:31.938Z,0.90
2022-11-22T10:13:31.933Z,0.94
2022-11-22T10:14:31.914Z,0.97
2022-11-22T10:15:32.014Z,0.98
2022-11-22T10:16:31.891Z,0.82
2022-11-22T10:17:31.881Z,1.00
2022-11-22T10:18:31.881Z,0.89
2022-11-22T10:19:32.211Z,1.01
2022-11-22T10:20:31.851Z,0.97
2022-11-22T10:21:31.839Z,0.98
2022-11-22T10:22:31.824Z,0.97
2022-11-22T10:23:31.828Z,1.00
2022-11-22T10:24:31.813Z,0.96
2022-11-22T10:25:31.799Z,0.96
2022-11-22T10:26:31.785Z,0.96
2022-11-22T10:27:31.772Z,1.01
2022-11-22T10:28:31.770Z,0.96
2022-11-22T10:29:32.171Z,1.01
2022-11-22T10:30:31.744Z,1.03
2022-11-22T10:31:31.840Z,1.01
2022-11-22T10:32:31.718Z,1.03
2022-11-22T10:33:31.720Z,0.97
2022-11-22T10:34:31.697Z,0.96
2022-11-22T10:35:31.693Z,1.06
2022-11-22T10:36:31.677Z,1.01
2022-11-22T10:37:31.671Z,1.12
2022-11-22T10:38:31.667Z,1.12
2022-11-22T10:39:34.610Z,1.04
2022-11-22T10:40:31.640Z,1.16
2022-11-22T10:41:31.632Z,1.03
2022-11-22T10:42:31.617Z,1.15
2022-11-22T10:43:31.658Z,1.06
2022-11-22T10:44:31.604Z,1.15
2022-11-22T10:45:31.588Z,1.16
2022-11-22T10:46:31.571Z,1.15
2022-11-22T10:47:34.475Z,1.10
2022-11-22T10:48:31.564Z,1.19
2022-11-22T10:49:31.939Z,1.19
2022-11-22T10:50:31.543Z,1.18
2022-11-22T10:51:31.526Z,1.32
2022-11-22T10:52:31.507Z,1.26
2022-11-22T10:53:31.516Z,1.22
2022-11-22T10:54:31.485Z,1.28
2022-11-22T10:55:31.475Z,1.19
2022-11-22T10:56:31.494Z,1.28
2022-11-22T10:57:31.457Z,1.24
2022-11-22T10:58:31.474Z,1.29
2022-11-22T10:59:31.792Z,1.34
2022-11-22T11:00:31.423Z,1.32
2022-11-22T11:01:31.500Z,1.40
2022-11-22T11:02:31.399Z,1.36
2022-11-22T11:03:31.424Z,1.37
2022-11-22T11:04:31.378Z,1.34
2022-11-22T11:05:31.369Z,1.29
2022-11-22T11:06:56.549Z,1.29
2022-11-22T11:07:32.441Z,1.32
2022-11-22T11:08:54.165Z,1.42
2022-11-22T11:10:34.598Z,1.52
2022-11-22T11:11:31.417Z,1.46
2022-11-22T11:12:31.296Z,1.50
2022-11-22T11:13:31.295Z,1.50
2022-11-22T11:14:31.502Z,1.50
2022-11-22T11:15:31.267Z,1.52
2022-11-22T11:16:31.253Z,1.57
2022-11-22T11:17:31.241Z,1.55
2022-11-22T11:18:31.251Z,1.52
2022-11-22T11:19:31.333Z,1.55
2022-11-22T11:20:31.220Z,1.64
2022-11-22T11:21:31.198Z,1.58
2022-11-22T11:22:58.504Z,1.61
2022-11-22T11:23:32.186Z,1.62
2022-11-22T11:24:31.524Z,1.60
2022-11-22T11:25:31.156Z,1.58
2022-11-22T11:26:31.146Z,1.61
2022-11-22T11:27:31.145Z,1.64
2022-11-22T11:28:31.142Z,1.65
2022-11-22T11:29:37.219Z,1.68
2022-11-22T11:30:32.108Z,1.73
2022-11-22T11:31:31.113Z,1.69
2022-11-22T11:32:31.106Z,1.76
2022-11-22T11:33:31.083Z,1.82
2022-11-22T11:34:31.378Z,1.72
2022-11-22T11:35:31.189Z,1.82
2022-11-22T11:36:31.039Z,1.85
2022-11-22T11:37:31.057Z,1.89
2022-11-22T11:38:31.049Z,1.85
2022-11-22T11:39:31.331Z,1.87
2022-11-22T11:40:31.010Z,1.78
2022-11-22T11:41:31.029Z,1.79
2022-11-22T11:42:30.973Z,1.85
2022-11-22T11:43:31.037Z,1.80
2022-11-22T11:44:31.351Z,1.82
2022-11-22T11:45:30.944Z,1.79
2022-11-22T11:46:30.994Z,1.85
2022-11-22T11:47:30.926Z,1.85
2022-11-22T11:48:30.926Z,2.01
2022-11-22T11:49:31.254Z,1.90
2022-11-22T11:50:30.890Z,1.82
2022-11-22T11:51:30.994Z,1.89
2022-11-22T11:52:30.867Z,1.91
2022-11-22T11:53:30.874Z,2.02
2022-11-22T11:54:30.847Z,2.01
2022-11-22T11:55:30.835Z,2.02
2022-11-22T11:56:30.850Z,1.98
2022-11-22T11:57:30.824Z,1.97
2022-11-22T11:58:30.815Z,1.98
2022-11-22T11:59:31.094Z,2.01
2022-11-22T12:00:30.787Z,1.97
2022-11-22T12:01:35.727Z,2.04
2022-11-22T12:02:34.667Z,2.04
2022-11-22T12:03:30.765Z,1.91
2022-11-22T12:04:31.067Z,1.94
2022-11-22T12:05:30.729Z,1.99
2022-11-22T12:06:30.719Z,1.99
2022-11-22T12:07:30.878Z,1.94
2022-11-22T12:08:30.709Z,1.99
2022-11-22T12:09:30.686Z,2.01
2022-11-22T12:10:30.689Z,2.08
2022-11-22T12:11:30.677Z,2.01
2022-11-22T12:12:30.660Z,2.12
2022-11-22T12:13:30.656Z,2.15
2022-11-22T12:14:49.052Z,2.10
2022-11-22T12:15:31.632Z,2.09
2022-11-22T12:16:30.636Z,2.10
2022-11-22T12:17:30.600Z,2.06
2022-11-22T12:18:30.608Z,2.02
2022-11-22T12:19:30.588Z,2.06
2022-11-22T12:20:30.583Z,2.13
2022-11-22T12:21:30.560Z,2.17
2022-11-22T12:22:48.887Z,2.17
2022-11-22T12:23:31.658Z,2.13
2022-11-22T12:25:03.105Z,2.20
2022-11-22T12:25:33.197Z,2.22
2022-11-22T12:26:30.506Z,2.15
2022-11-22T12:27:30.495Z,2.20
2022-11-22T12:28:30.532Z,2.22
2022-11-22T12:29:30.480Z,2.10
2022-11-22T12:30:30.485Z,2.09
2022-11-22T12:31:30.450Z,2.13
2022-11-22T12:32:30.447Z,2.12
2022-11-22T12:33:30.430Z,2.19
2022-11-22T12:34:30.619Z,2.16
2022-11-22T12:35:30.410Z,2.12
2022-11-22T12:36:32.945Z,2.19
2022-11-22T12:37:30.391Z,2.15
2022-11-22T12:38:30.375Z,2.17
2022-11-22T12:39:30.504Z,2.16
2022-11-22T12:40:30.354Z,2.15
2022-11-22T12:41:30.343Z,2.27
2022-11-22T12:42:30.342Z,2.17
2022-11-22T12:43:30.322Z,2.19
2022-11-22T12:44:30.677Z,2.23
2022-11-22T12:45:30.299Z,2.22
2022-11-22T12:46:30.292Z,2.20
2022-11-22T12:47:30.279Z,2.20
2022-11-22T12:48:30.428Z,2.20
2022-11-22T12:49:30.269Z,2.16
2022-11-22T12:50:30.249Z,2.17
2022-11-22T12:51:30.236Z,2.22
2022-11-22T12:52:30.228Z,2.17
2022-11-22T12:53:30.217Z,2.19
2022-11-22T12:54:30.468Z,2.26
2022-11-22T12:55:30.323Z,2.20
2022-11-22T12:56:33.585Z,2.20
2022-11-22T12:57:30.172Z,2.26
2022-11-22T12:58:30.166Z,2.20
2022-11-22T12:59:30.158Z,2.23
2022-11-22T13:00:30.170Z,2.33
2022-11-22T13:01:30.225Z,2.26
2022-11-22T13:02:30.117Z,2.30
2022-11-22T13:03:30.123Z,2.37
2022-11-22T13:04:30.470Z,2.38